createdAt,value
2023-02-12T00:03:07.089Z,29.30
2023-02-12T00:08:25.637Z,31.90
2023-02-12T00:13:34.395Z,25.90
2023-02-12T00:18:40.017Z,27.50
2023-02-12T00:23:51.157Z,30.70
2023-02-12T00:28:59.338Z,29.30
2023-02-12T00:34:07.370Z,27.20
2023-02-12T00:39:19.179Z,32.20
2023-02-12T00:44:28.526Z,30.10
2023-02-12T00:49:40.847Z,29.80
2023-02-12T00:54:46.721Z,31.00
2023-02-12T00:59:54.949Z,29.40
2023-02-12T01:05:02.755Z,26.00
2023-02-12T01:10:17.493Z,29.30
2023-02-12T01:15:24.236Z,28.90
2023-02-12T01:20:36.252Z,26.50
2023-02-12T01:25:48.331Z,26.00
2023-02-12T01:30:56.182Z,24.90
2023-02-12T01:36:08.312Z,22.20
2023-02-12T01:41:21.246Z,25.10
2023-02-12T01:46:29.020Z,22.90
2023-02-12T01:51:42.896Z,20.50
2023-02-12T01:56:51.794Z,20.50
2023-02-12T02:02:00.538Z,19.90
2023-02-12T02:07:14.556Z,21.40
2023-02-12T02:12:42.864Z,19.50
2023-02-12T02:18:15.286Z,19.10
2023-02-12T02:23:55.338Z,19.50
2023-02-12T02:29:50.221Z,18.10
2023-02-12T02:35:10.781Z,20.50
2023-02-12T02:40:39.390Z,19.80
2023-02-12T02:45:51.720Z,18.30
2023-02-12T02:51:09.349Z,17.30
2023-02-12T02:56:24.802Z,19.10
2023-02-12T03:01:53.094Z,19.20
2023-02-12T03:07:22.122Z,21.10
2023-02-12T03:12:51.972Z,18.10
2023-02-12T03:18:04.741Z,20.50
2023-02-12T03:23:17.137Z,19.20
2023-02-12T03:28:27.879Z,19.80
2023-02-12T03:33:55.561Z,19.80
2023-02-12T03:39:18.882Z,20.60
2023-02-12T03:45:03.524Z,21.90
2023-02-12T03:50:21.537Z,20.80
2023-02-12T03:55:28.177Z,21.40
2023-02-12T04:00:54.190Z,21.70
2023-02-12T04:06:06.303Z,20.60
2023-02-12T04:11:33.573Z,19.30
2023-02-12T04:16:46.668Z,23.30
2023-02-12T04:22:04.717Z,20.90
2023-02-12T04:27:41.118Z,21.20
2023-02-12T04:33:04.743Z,21.90
2023-02-12T04:38:23.081Z,23.50
2023-02-12T04:43:40.101Z,23.70
2023-02-12T04:48:57.608Z,23.30
2023-02-12T04:54:11.366Z,23.00
2023-02-12T04:59:15.337Z,22.10
2023-02-12T05:04:19.484Z,23.80
2023-02-12T05:09:22.930Z,22.90
2023-02-12T05:14:26.415Z,23.20
2023-02-12T05:19:30.029Z,22.30
2023-02-12T05:24:33.630Z,22.50
2023-02-12T05:29:37.906Z,22.30
2023-02-12T05:34:41.440Z,22.70
2023-02-12T05:39:45.187Z,21.10
2023-02-12T05:44:48.679Z,23.60
2023-02-12T05:49:52.188Z,21.60
2023-02-12T05:54:55.639Z,23.00
2023-02-12T05:59:59.248Z,20.30
2023-02-12T06:05:03.027Z,22.70
2023-02-12T06:10:09.149Z,23.40
2023-02-12T06:15:12.710Z,23.70
2023-02-12T06:20:16.833Z,21.80
2023-02-12T06:25:21.012Z,21.60
2023-02-12T06:30:24.912Z,22.00
2023-02-12T06:35:28.428Z,23.40
2023-02-12T06:40:32.070Z,22.90
2023-02-12T06:45:35.877Z,22.70
2023-02-12T06:50:39.294Z,24.40
2023-02-12T06:55:42.708Z,23.80
2023-02-12T07:00:46.220Z,25.70
2023-02-12T07:05:49.657Z,23.70
2023-02-12T07:10:53.123Z,23.00
2023-02-12T07:15:56.994Z,20.30
2023-02-12T07:21:00.890Z,24.00
2023-02-12T07:26:06.571Z,22.10
2023-02-12T07:31:11.975Z,23.60
2023-02-12T07:36:17.192Z,25.70
2023-02-12T07:41:22.690Z,23.10
2023-02-12T07:46:29.468Z,22.20
2023-02-12T07:51:35.080Z,21.80
2023-02-12T07:56:40.163Z,22.50
2023-02-12T08:01:45.890Z,22.50
2023-02-12T08:06:51.475Z,26.00
2023-02-12T08:11:55.255Z,26.20
2023-02-12T08:16:58.754Z,24.00
2023-02-12T08:22:02.560Z,24.60
2023-02-12T08:27:06.283Z,23.50
2023-02-12T08:32:13.386Z,23.40
2023-02-12T08:37:17.092Z,20.50
2023-02-12T08:42:20.591Z,21.50
2023-02-12T08:47:24.057Z,21.20
2023-02-12T08:52:27.636Z,20.60
2023-02-12T08:57:31.128Z,20.50
2023-02-12T09:02:34.651Z,20.50
2023-02-12T09:07:38.580Z,20.20
2023-02-12T09:12:42.029Z,19.90
2023-02-12T09:17:45.638Z,19.80
2023-02-12T09:22:49.173Z,19.30
2023-02-12T09:27:52.667Z,17.20
2023-02-12T09:32:57.248Z,18.20
2023-02-12T09:38:00.850Z,16.00
2023-02-12T09:43:11.735Z,14.70
2023-02-12T09:48:34.295Z,14.60
2023-02-12T09:53:42.102Z,14.60
2023-02-12T09:58:50.126Z,12.20
2023-02-12T10:03:54.082Z,11.80
2023-02-12T10:09:13.568Z,12.90
2023-02-12T10:14:44.035Z,13.30
2023-02-12T10:20:15.497Z,14.40
2023-02-12T10:25:54.481Z,16.40
2023-02-12T10:31:15.492Z,15.10
2023-02-12T10:36:37.171Z,14.10
2023-02-12T10:42:03.115Z,13.30
2023-02-12T10:47:25.705Z,13.20
2023-02-12T10:58:25.624Z,12.30
2023-02-12T11:03:34.797Z,13.40
2023-02-12T11:08:51.700Z,11.10
2023-02-12T11:14:27.042Z,10.80
2023-02-12T11:19:43.576Z,10.60
2023-02-12T11:25:11.857Z,9.20
2023-02-12T11:30:21.426Z,10.90
2023-02-12T11:35:40.681Z,11.90
2023-02-12T11:41:00.454Z,10.40
2023-02-12T11:46:24.384Z,8.60
2023-02-12T11:51:49.974Z,8.30
2023-02-12T11:57:01.207Z,8.70
2023-02-12T12:02:32.377Z,7.90
2023-02-12T12:07:48.856Z,8.20
2023-02-12T12:13:09.845Z,8.20
2023-02-12T12:18:49.188Z,9.40
2023-02-12T12:24:04.466Z,8.80
2023-02-12T12:29:31.901Z,8.30
2023-02-12T12:34:46.535Z,7.20
2023-02-12T12:40:32.166Z,9.60
2023-02-12T12:46:33.503Z,9.90
2023-02-12T12:52:06.303Z,7.70
2023-02-12T12:57:24.884Z,8.50
2023-02-12T13:03:11.968Z,6.60
2023-02-12T13:08:58.478Z,6.40
2023-02-12T13:14:31.617Z,6.10
2023-02-12T13:19:59.006Z,5.80
2023-02-12T13:25:30.371Z,6.00
2023-02-12T13:36:21.738Z,5.60
2023-02-12T13:41:43.384Z,6.50
2023-02-12T13:47:10.868Z,8.50
2023-02-12T13:52:30.712Z,7.10
2023-02-12T13:57:44.089Z,8.00
2023-02-12T14:02:56.005Z,8.20
2023-02-12T14:08:35.064Z,7.10
2023-02-12T14:14:23.109Z,7.20
2023-02-12T14:32:55.001Z,5.90
2023-02-12T14:39:13.004Z,6.00
2023-02-12T14:44:50.107Z,6.00
2023-02-12T14:50:02.681Z,7.20
2023-02-12T14:55:25.075Z,5.20
2023-02-12T15:00:35.750Z,5.60
2023-02-12T15:06:05.761Z,5.60
2023-02-12T15:11:41.558Z,5.90
2023-02-12T15:17:06.037Z,6.40
2023-02-12T15:22:24.437Z,7.70
2023-02-12T15:33:17.941Z,8.50
2023-02-12T15:38:37.271Z,7.60
2023-02-12T15:43:46.687Z,7.20
2023-02-12T15:49:01.026Z,6.60
2023-02-12T15:54:28.632Z,7.30
2023-02-12T16:05:40.035Z,6.70
2023-02-12T16:10:57.157Z,7.30
2023-02-12T16:16:26.923Z,8.40
2023-02-12T16:21:55.125Z,8.40
2023-02-12T16:27:20.646Z,10.20
2023-02-12T17:27:21.256Z,13.20
2023-02-12T18:04:44.008Z,12.60
2023-02-12T18:10:05.668Z,13.60
2023-02-12T18:15:13.368Z,16.20
2023-02-12T18:27:05.489Z,16.80
2023-02-12T18:38:40.570Z,17.80
2023-02-12T18:44:57.652Z,18.30
2023-02-12T19:03:49.315Z,18.50
2023-02-12T19:09:33.050Z,18.70
2023-02-12T19:15:14.371Z,22.20
2023-02-12T19:34:06.624Z,22.00
2023-02-12T19:39:48.320Z,17.90
2023-02-12T19:46:13.034Z,20.70
2023-02-12T19:51:42.208Z,21.00
2023-02-12T19:57:40.860Z,21.60
2023-02-12T20:02:54.407Z,23.60
2023-02-12T20:22:41.005Z,23.10
2023-02-12T20:39:40.433Z,21.00
2023-02-12T20:50:54.792Z,25.10
2023-02-12T20:56:25.036Z,24.40
2023-02-12T21:01:52.178Z,23.60
2023-02-12T21:07:02.448Z,23.20
2023-02-12T21:12:31.002Z,25.40
2023-02-12T21:17:42.700Z,22.50
2023-02-12T21:23:15.870Z,26.60
2023-02-12T21:35:38.326Z,23.30
2023-02-12T21:40:59.595Z,25.00
2023-02-12T21:46:17.168Z,24.20
2023-02-12T21:51:51.778Z,26.50
2023-02-12T21:57:20.121Z,23.40
2023-02-12T22:02:37.155Z,24.00
2023-02-12T22:08:03.701Z,23.90
2023-02-12T22:13:26.131Z,27.10
2023-02-12T22:18:42.269Z,24.90
2023-02-12T22:25:01.136Z,25.10
2023-02-12T22:31:41.641Z,24.50
2023-02-12T22:37:11.764Z,24.90
2023-02-12T22:42:42.350Z,24.30
2023-02-12T22:48:29.149Z,22.20
2023-02-12T22:54:00.291Z,25.10
2023-02-12T22:59:30.650Z,25.10
2023-02-12T23:04:40.656Z,24.30
2023-02-12T23:10:04.192Z,21.80
2023-02-12T23:15:39.104Z,23.10
2023-02-12T23:21:07.812Z,22.50
2023-02-12T23:33:23.410Z,22.60
2023-02-12T23:39:09.210Z,21.30
2023-02-12T23:44:41.772Z,24.60
2023-02-12T23:50:22.792Z,23.00
